createdAt,value
2024-04-12T00:02:11.149Z,19.33
2024-04-12T00:04:39.036Z,19.32
2024-04-12T00:07:16.896Z,19.27
2024-04-12T00:09:55.658Z,19.27
2024-04-12T00:12:29.617Z,19.26
2024-04-12T00:15:04.263Z,19.26
2024-04-12T00:17:33.422Z,19.24
2024-04-12T00:20:02.592Z,19.25
2024-04-12T00:22:31.965Z,19.24
2024-04-12T00:25:01.931Z,19.25
2024-04-12T00:27:35.634Z,19.23
2024-04-12T00:30:09.606Z,19.20
2024-04-12T00:32:38.072Z,19.18
2024-04-12T00:35:12.941Z,19.18
2024-04-12T00:37:54.739Z,19.16
2024-04-12T00:40:22.977Z,19.12
2024-04-12T00:42:51.973Z,19.08
2024-04-12T00:45:39.674Z,19.06
2024-04-12T00:48:09.591Z,19.05
2024-04-12T00:50:41.932Z,19.06
2024-04-12T00:53:12.754Z,19.07
2024-04-12T00:55:40.758Z,19.07
2024-04-12T00:58:11.477Z,19.06
2024-04-12T01:00:48.399Z,19.01
2024-04-12T01:03:17.003Z,18.98
2024-04-12T01:05:45.017Z,18.94
2024-04-12T01:08:13.037Z,18.92
2024-04-12T01:10:40.561Z,18.90
2024-04-12T01:13:13.213Z,18.88
2024-04-12T01:15:40.759Z,18.83
2024-04-12T01:18:13.101Z,18.81
2024-04-12T01:20:41.442Z,18.79
2024-04-12T01:23:11.773Z,18.76
2024-04-12T01:25:39.576Z,18.74
2024-04-12T01:28:11.279Z,18.68
2024-04-12T01:30:41.486Z,18.64
2024-04-12T01:33:10.768Z,18.59
2024-04-12T01:35:38.689Z,18.57
2024-04-12T01:38:20.043Z,18.54
2024-04-12T01:40:59.061Z,18.49
2024-04-12T01:43:28.997Z,18.47
2024-04-12T01:45:56.978Z,18.38
2024-04-12T01:48:25.141Z,18.32
2024-04-12T01:50:52.973Z,18.27
2024-04-12T01:53:23.556Z,18.22
2024-04-12T01:55:52.865Z,18.22
2024-04-12T01:58:21.950Z,18.18
2024-04-12T02:00:50.845Z,18.14
2024-04-12T02:03:20.125Z,18.12
2024-04-12T02:05:51.128Z,18.09
2024-04-12T02:08:19.676Z,18.07
2024-04-12T02:10:50.791Z,18.00
2024-04-12T02:13:20.044Z,17.94
2024-04-12T02:15:48.496Z,17.93
2024-04-12T02:18:16.260Z,17.87
2024-04-12T02:20:46.689Z,17.81
2024-04-12T02:23:17.638Z,17.81
2024-04-12T02:25:45.483Z,17.75
2024-04-12T02:28:14.219Z,17.73
2024-04-12T02:31:02.394Z,17.72
2024-04-12T02:33:34.078Z,17.70
2024-04-12T02:36:05.545Z,17.61
2024-04-12T02:38:33.508Z,17.65
2024-04-12T02:41:01.095Z,17.65
2024-04-12T02:43:30.950Z,17.64
2024-04-12T02:46:00.192Z,17.58
2024-04-12T02:48:29.691Z,17.60
2024-04-12T02:51:04.748Z,17.36
2024-04-12T02:53:32.940Z,17.41
2024-04-12T02:56:10.338Z,17.39
2024-04-12T02:58:42.217Z,17.36
2024-04-12T03:01:15.411Z,17.32
2024-04-12T03:04:05.117Z,17.31
2024-04-12T03:06:33.767Z,17.26
2024-04-12T03:09:03.115Z,17.25
2024-04-12T03:11:39.165Z,17.22
2024-04-12T03:14:11.808Z,17.24
2024-04-12T03:16:44.029Z,17.23
2024-04-12T03:19:13.583Z,17.20
2024-04-12T03:21:43.942Z,17.21
2024-04-12T03:24:12.027Z,17.19
2024-04-12T03:26:39.949Z,17.15
2024-04-12T03:29:07.704Z,17.15
2024-04-12T03:31:40.243Z,17.12
2024-04-12T03:34:09.149Z,17.09
2024-04-12T03:36:37.412Z,17.10
2024-04-12T03:39:22.919Z,17.07
2024-04-12T03:41:52.709Z,17.04
2024-04-12T03:44:20.197Z,17.01
2024-04-12T03:46:51.514Z,16.98
2024-04-12T03:49:23.241Z,16.97
2024-04-12T03:51:53.079Z,16.97
2024-04-12T03:54:22.410Z,16.96
2024-04-12T03:56:53.330Z,16.95
2024-04-12T03:59:21.996Z,16.94
2024-04-12T04:01:50.079Z,16.91
2024-04-12T04:04:20.910Z,16.84
2024-04-12T04:06:50.431Z,16.80
2024-04-12T04:09:21.096Z,16.79
2024-04-12T04:11:49.409Z,16.76
2024-04-12T04:14:21.036Z,16.73
2024-04-12T04:16:51.102Z,16.78
2024-04-12T04:19:31.979Z,16.74
2024-04-12T04:22:28.764Z,16.74
2024-04-12T04:24:56.535Z,16.69
2024-04-12T04:27:24.660Z,16.68
2024-04-12T04:29:52.903Z,16.68
2024-04-12T04:32:23.626Z,16.72
2024-04-12T04:35:06.505Z,16.68
2024-04-12T04:37:41.475Z,16.66
2024-04-12T04:40:19.104Z,16.68
2024-04-12T04:42:48.442Z,16.71
2024-04-12T04:45:20.662Z,16.75
2024-04-12T04:47:52.133Z,16.78
2024-04-12T04:50:21.531Z,16.80
2024-04-12T04:52:49.467Z,16.83
2024-04-12T04:55:19.204Z,16.86
2024-04-12T04:57:51.261Z,16.80
2024-04-12T05:00:24.475Z,16.82
2024-04-12T05:02:54.863Z,16.79
2024-04-12T05:05:29.298Z,16.84
2024-04-12T05:07:58.631Z,16.85
2024-04-12T05:10:27.153Z,16.84
2024-04-12T05:12:55.762Z,16.89
2024-04-12T05:15:32.434Z,16.91
2024-04-12T05:18:05.333Z,16.89
2024-04-12T05:20:42.306Z,16.93
2024-04-12T05:23:13.959Z,16.93
2024-04-12T05:25:41.865Z,16.88
2024-04-12T05:28:09.371Z,16.87
2024-04-12T05:30:44.546Z,16.95
2024-04-12T05:33:13.347Z,16.99
2024-04-12T05:35:41.725Z,16.98
2024-04-12T05:38:09.521Z,17.02
2024-04-12T05:40:42.011Z,17.08
2024-04-12T05:43:16.115Z,17.13
2024-04-12T05:45:55.363Z,17.15
2024-04-12T05:48:23.803Z,17.25
2024-04-12T05:50:55.956Z,17.34
2024-04-12T05:53:32.945Z,17.34
2024-04-12T05:56:21.246Z,17.37
2024-04-12T05:58:52.804Z,17.42
2024-04-12T06:01:26.559Z,17.48
2024-04-12T06:03:56.341Z,17.48
2024-04-12T06:06:24.868Z,17.55
2024-04-12T06:08:54.591Z,17.59
2024-04-12T06:11:23.690Z,17.66
2024-04-12T06:13:55.942Z,17.71
2024-04-12T06:16:24.947Z,17.77
2024-04-12T06:18:53.314Z,17.81
2024-04-12T06:21:20.851Z,17.83
2024-04-12T06:23:52.791Z,17.84
2024-04-12T06:26:24.015Z,17.89
2024-04-12T06:28:54.796Z,17.94
2024-04-12T06:31:36.175Z,18.01
2024-04-12T06:34:11.970Z,18.06
2024-04-12T06:36:46.821Z,18.14
2024-04-12T06:39:15.909Z,18.24
2024-04-12T06:41:46.768Z,18.33
2024-04-12T06:44:20.771Z,18.41
2024-04-12T06:46:52.984Z,18.45
2024-04-12T06:49:28.334Z,18.51
2024-04-12T06:52:11.599Z,18.56
2024-04-12T06:54:43.491Z,18.59
2024-04-12T06:57:18.866Z,18.62
2024-04-12T06:59:49.250Z,18.73
2024-04-12T07:02:25.245Z,18.77
2024-04-12T07:04:55.324Z,18.87
2024-04-12T07:07:26.080Z,18.99
2024-04-12T07:09:59.632Z,19.07
2024-04-12T07:12:32.986Z,19.15
2024-04-12T07:15:01.988Z,19.26
2024-04-12T07:17:30.625Z,19.34
2024-04-12T07:20:01.506Z,19.43
2024-04-12T07:22:29.298Z,19.54
2024-04-12T07:24:57.585Z,19.66
2024-04-12T07:27:29.456Z,19.81
2024-04-12T07:29:59.529Z,19.93
2024-04-12T07:32:37.269Z,20.01
2024-04-12T07:35:26.719Z,20.10
2024-04-12T07:37:59.545Z,20.20
2024-04-12T07:40:33.838Z,20.33
2024-04-12T07:43:10.605Z,20.46
2024-04-12T07:45:42.446Z,20.56
2024-04-12T07:48:22.055Z,20.67
2024-04-12T07:50:55.894Z,20.77
2024-04-12T07:53:27.391Z,20.87
2024-04-12T07:56:16.175Z,20.92
2024-04-12T07:58:44.842Z,21.01
2024-04-12T08:01:18.279Z,21.10
2024-04-12T08:03:58.371Z,21.23
2024-04-12T08:06:57.419Z,21.35
2024-04-12T08:09:46.413Z,21.41
2024-04-12T08:12:25.423Z,21.45
2024-04-12T08:14:55.110Z,21.51
2024-04-12T08:17:28.700Z,21.57
2024-04-12T08:19:58.821Z,21.60
2024-04-12T08:22:27.334Z,21.63
2024-04-12T08:24:55.781Z,21.65
2024-04-12T08:27:26.839Z,21.67
2024-04-12T08:29:58.600Z,21.67
2024-04-12T08:32:35.448Z,21.69
2024-04-12T08:35:08.843Z,21.77
2024-04-12T08:37:39.754Z,21.81
2024-04-12T08:40:11.333Z,21.84
2024-04-12T08:42:39.491Z,21.83
2024-04-12T08:45:20.949Z,21.89
2024-04-12T08:48:03.761Z,21.99
2024-04-12T08:50:37.147Z,22.13
2024-04-12T08:53:14.105Z,22.27
2024-04-12T08:55:46.501Z,22.35
2024-04-12T08:58:22.638Z,22.40
2024-04-12T09:00:52.976Z,22.44
2024-04-12T09:03:28.096Z,22.49
2024-04-12T09:05:58.131Z,22.61
2024-04-12T09:08:32.962Z,22.70
2024-04-12T09:11:05.008Z,22.79
2024-04-12T09:13:35.121Z,22.86
2024-04-12T09:16:08.662Z,22.96
2024-04-12T09:18:47.075Z,22.99
2024-04-12T09:21:47.664Z,23.09
2024-04-12T09:24:23.236Z,23.19
2024-04-12T09:26:57.742Z,23.24
2024-04-12T09:29:28.906Z,23.23
2024-04-12T09:32:18.756Z,23.23
2024-04-12T09:34:57.519Z,23.20
2024-04-12T09:37:28.536Z,23.19
2024-04-12T09:40:06.345Z,23.17
2024-04-12T09:42:49.055Z,23.16
2024-04-12T09:45:23.799Z,23.15
2024-04-12T09:48:12.355Z,23.12
2024-04-12T09:50:59.186Z,23.01
2024-04-12T09:53:45.707Z,22.97
2024-04-12T09:56:36.219Z,23.04
2024-04-12T09:59:29.532Z,23.12
2024-04-12T10:02:15.920Z,23.22
2024-04-12T10:05:01.990Z,23.32
2024-04-12T10:07:48.420Z,23.43
2024-04-12T10:10:34.634Z,23.55
2024-04-12T10:13:21.221Z,23.64
2024-04-12T10:16:14.491Z,23.72
2024-04-12T10:19:00.777Z,23.68
2024-04-12T10:21:48.975Z,23.68
2024-04-12T10:24:35.259Z,23.64
2024-04-12T10:27:21.813Z,23.63
2024-04-12T10:30:09.687Z,23.64
2024-04-12T10:32:58.981Z,23.59
2024-04-12T10:35:45.161Z,23.47
2024-04-12T10:38:27.240Z,23.51
2024-04-12T10:41:09.373Z,23.51
2024-04-12T10:43:37.130Z,23.51
2024-04-12T10:46:06.752Z,23.47
2024-04-12T10:48:35.499Z,23.51
2024-04-12T10:51:06.187Z,23.54
2024-04-12T10:53:35.343Z,23.61
2024-04-12T10:56:04.391Z,23.67
2024-04-12T10:58:35.264Z,23.75
2024-04-12T11:01:10.208Z,23.72
2024-04-12T11:03:39.999Z,23.66
2024-04-12T11:06:20.210Z,23.60
2024-04-12T11:08:47.952Z,23.62
2024-04-12T11:11:19.029Z,23.67
2024-04-12T11:13:49.145Z,23.64
2024-04-12T11:16:35.345Z,23.71
2024-04-12T11:19:21.564Z,23.76
2024-04-12T11:22:07.634Z,23.73
2024-04-12T11:24:53.861Z,23.74
2024-04-12T11:27:40.032Z,23.68
2024-04-12T11:30:29.967Z,23.73
2024-04-12T11:32:58.186Z,23.75
2024-04-12T11:35:30.217Z,23.77
2024-04-12T11:37:58.074Z,23.76
2024-04-12T11:40:26.544Z,23.81
2024-04-12T11:42:57.990Z,23.83
2024-04-12T11:45:32.021Z,23.93
2024-04-12T11:48:00.840Z,23.89
2024-04-12T11:50:28.674Z,23.94
2024-04-12T11:52:56.799Z,23.99
2024-04-12T11:55:29.410Z,23.98
2024-04-12T11:57:57.403Z,24.02
2024-04-12T12:00:24.952Z,24.03
2024-04-12T12:02:53.875Z,23.92
2024-04-12T12:05:23.058Z,23.88
2024-04-12T12:07:50.510Z,23.89
2024-04-12T12:10:18.053Z,23.82
2024-04-12T12:12:45.809Z,23.82
2024-04-12T12:15:16.248Z,23.72
2024-04-12T12:17:44.170Z,23.71
2024-04-12T12:20:11.735Z,23.75
2024-04-12T12:22:39.961Z,23.65
2024-04-12T12:25:09.491Z,23.58
2024-04-12T12:27:37.317Z,23.49
2024-04-12T12:30:15.306Z,23.46
2024-04-12T12:32:46.454Z,23.47
2024-04-12T12:35:24.129Z,23.48
2024-04-12T12:37:52.597Z,23.49
2024-04-12T12:40:22.718Z,23.50
2024-04-12T12:42:53.736Z,23.46
2024-04-12T12:45:21.761Z,23.47
2024-04-12T12:47:49.681Z,23.46
2024-04-12T12:50:24.948Z,23.48
2024-04-12T12:52:52.761Z,23.40
2024-04-12T12:55:22.586Z,23.39
2024-04-12T12:58:11.147Z,23.36
2024-04-12T13:00:44.116Z,23.29
2024-04-12T13:03:14.062Z,23.27
2024-04-12T13:05:41.775Z,23.28
2024-04-12T13:08:09.264Z,23.19
2024-04-12T13:10:39.383Z,23.17
2024-04-12T13:13:07.270Z,23.11
2024-04-12T13:15:35.041Z,23.13
2024-04-12T13:18:02.704Z,23.07
2024-04-12T13:20:37.435Z,23.08
2024-04-12T13:23:05.067Z,23.01
2024-04-12T13:25:32.445Z,22.89
2024-04-12T13:28:05.244Z,22.88
2024-04-12T13:30:35.630Z,22.84
2024-04-12T13:33:03.271Z,22.84
2024-04-12T13:35:33.127Z,22.82
2024-04-12T13:38:01.199Z,22.81
2024-04-12T13:40:28.756Z,22.81
2024-04-12T13:42:56.091Z,22.84
2024-04-12T13:45:42.326Z,22.88
2024-04-12T13:48:28.429Z,22.90
2024-04-12T13:50:56.631Z,22.91
2024-04-12T13:53:34.055Z,22.91
2024-04-12T13:56:21.791Z,22.87
2024-04-12T13:59:09.002Z,22.86
2024-04-12T14:01:36.661Z,22.76
2024-04-12T14:04:05.803Z,22.78
2024-04-12T14:06:36.198Z,22.74
2024-04-12T14:09:14.543Z,22.74
2024-04-12T14:11:42.584Z,22.76
2024-04-12T14:14:10.245Z,22.67
2024-04-12T14:16:43.865Z,22.69
2024-04-12T14:19:19.624Z,22.69
2024-04-12T14:21:52.986Z,22.75
2024-04-12T14:24:43.292Z,22.81
2024-04-12T14:27:13.566Z,22.85
2024-04-12T14:29:41.447Z,22.90
2024-04-12T14:32:11.777Z,22.91
2024-04-12T14:34:41.798Z,22.90
2024-04-12T14:37:09.940Z,22.82
2024-04-12T14:39:43.951Z,22.72
2024-04-12T14:42:16.995Z,22.61
2024-04-12T14:44:45.469Z,22.44
2024-04-12T14:47:13.306Z,22.41
2024-04-12T14:49:42.393Z,22.39
2024-04-12T14:52:13.182Z,22.39
2024-04-12T14:54:40.857Z,22.34
2024-04-12T14:57:08.575Z,22.34
2024-04-12T14:59:36.998Z,22.32
2024-04-12T15:02:07.399Z,22.28
2024-04-12T15:04:53.706Z,22.24
2024-04-12T15:07:39.554Z,22.18
2024-04-12T15:10:26.679Z,22.15
2024-04-12T15:13:12.958Z,22.09
2024-04-12T15:15:59.027Z,22.02
2024-04-12T15:18:45.131Z,21.98
2024-04-12T15:21:31.260Z,21.97
2024-04-12T15:24:17.385Z,21.91
2024-04-12T15:27:03.540Z,21.93
2024-04-12T15:29:49.752Z,21.89
2024-04-12T15:32:36.059Z,21.90
2024-04-12T15:35:22.166Z,21.85
2024-04-12T15:38:10.348Z,21.78
2024-04-12T15:40:56.583Z,21.68
2024-04-12T15:43:42.636Z,21.59
2024-04-12T15:46:28.626Z,21.49
2024-04-12T15:48:57.582Z,21.46
2024-04-12T15:51:29.585Z,21.38
2024-04-12T15:54:00.500Z,21.33
2024-04-12T15:56:29.044Z,21.25
2024-04-12T15:59:15.075Z,21.24
2024-04-12T16:02:01.337Z,21.15
2024-04-12T16:04:47.566Z,21.10
2024-04-12T16:07:33.460Z,21.05
2024-04-12T16:10:19.432Z,20.99
2024-04-12T16:12:47.026Z,20.91
2024-04-12T16:15:14.651Z,20.86
2024-04-12T16:17:43.208Z,20.74
2024-04-12T16:20:10.885Z,20.66
2024-04-12T16:22:39.960Z,20.61
2024-04-12T16:25:07.642Z,20.51
2024-04-12T16:27:35.101Z,20.42
2024-04-12T16:30:02.900Z,20.43
2024-04-12T16:32:30.730Z,20.40
2024-04-12T16:34:59.034Z,20.33
2024-04-12T16:37:26.690Z,20.30
2024-04-12T16:39:54.272Z,20.30
2024-04-12T16:42:22.054Z,20.23
2024-04-12T16:44:49.702Z,20.19
2024-04-12T16:47:17.245Z,20.16
2024-04-12T16:49:45.547Z,20.10
2024-04-12T16:52:13.335Z,20.06
2024-04-12T16:54:41.160Z,20.01
2024-04-12T16:57:10.776Z,19.96
2024-04-12T16:59:38.624Z,19.93
2024-04-12T17:02:06.464Z,19.89
2024-04-12T17:04:34.244Z,19.83
2024-04-12T17:07:01.779Z,19.81
2024-04-12T17:09:29.398Z,19.77
2024-04-12T17:11:56.961Z,19.74
2024-04-12T17:14:24.488Z,19.71
2024-04-12T17:16:52.042Z,19.66
2024-04-12T17:19:19.457Z,19.63
2024-04-12T17:21:46.980Z,19.58
2024-04-12T17:24:15.838Z,19.54
2024-04-12T17:26:46.310Z,19.51
2024-04-12T17:29:13.881Z,19.42
2024-04-12T17:31:41.395Z,19.37
2024-04-12T17:34:10.727Z,19.29
2024-04-12T17:36:38.464Z,19.24
2024-04-12T17:39:12.607Z,19.20
2024-04-12T17:41:40.738Z,19.15
2024-04-12T17:44:08.570Z,19.12
2024-04-12T17:46:36.399Z,19.07
2024-04-12T17:49:06.661Z,18.99
2024-04-12T17:51:34.501Z,18.92
2024-04-12T17:54:06.932Z,18.87
2024-04-12T17:56:39.165Z,18.79
2024-04-12T17:59:06.749Z,18.72
2024-04-12T18:01:35.237Z,18.62
2024-04-12T18:04:08.233Z,18.57
2024-04-12T18:06:42.219Z,18.52
2024-04-12T18:09:10.683Z,18.44
2024-04-12T18:11:38.410Z,18.38
2024-04-12T18:14:07.099Z,18.35
2024-04-12T18:16:34.604Z,18.29
2024-04-12T18:19:04.001Z,18.23
2024-04-12T18:21:31.612Z,18.22
2024-04-12T18:24:02.655Z,18.16
2024-04-12T18:26:30.531Z,18.12
2024-04-12T18:28:58.241Z,18.10
2024-04-12T18:31:25.707Z,18.08
2024-04-12T18:33:54.815Z,18.05
2024-04-12T18:36:23.188Z,18.01
2024-04-12T18:39:10.013Z,18.00
2024-04-12T18:41:57.403Z,17.93
2024-04-12T18:44:45.035Z,17.86
2024-04-12T18:47:13.283Z,17.81
2024-04-12T18:49:40.744Z,17.79
2024-04-12T18:52:09.568Z,17.76
2024-04-12T18:54:37.303Z,17.73
2024-04-12T18:57:06.138Z,17.64
2024-04-12T18:59:34.440Z,17.62
2024-04-12T19:02:02.322Z,17.63
2024-04-12T19:04:30.358Z,17.61
2024-04-12T19:06:57.855Z,17.59
2024-04-12T19:09:25.448Z,17.53
2024-04-12T19:11:54.590Z,17.51
2024-04-12T19:14:22.480Z,17.50
2024-04-12T19:16:49.948Z,17.47
2024-04-12T19:19:18.071Z,17.45
2024-04-12T19:21:46.089Z,17.43
2024-04-12T19:24:13.683Z,17.40
2024-04-12T19:26:41.151Z,17.39
2024-04-12T19:29:08.746Z,17.36
2024-04-12T19:31:37.586Z,17.36
2024-04-12T19:34:05.653Z,17.33
2024-04-12T19:36:33.285Z,17.28
2024-04-12T19:39:01.334Z,17.25
2024-04-12T19:41:29.429Z,17.21
2024-04-12T19:43:56.928Z,17.15
2024-04-12T19:46:24.386Z,17.11
2024-04-12T19:48:51.994Z,17.08
2024-04-12T19:51:19.711Z,17.03
2024-04-12T19:53:48.136Z,17.00
2024-04-12T19:56:16.472Z,16.95
2024-04-12T19:58:46.126Z,16.92
2024-04-12T20:01:13.789Z,16.93
2024-04-12T20:03:43.887Z,16.91
2024-04-12T20:06:12.124Z,16.88
2024-04-12T20:08:39.605Z,16.87
2024-04-12T20:11:07.562Z,16.87
2024-04-12T20:13:35.652Z,16.83
2024-04-12T20:16:07.595Z,16.85
2024-04-12T20:18:37.448Z,16.84
2024-04-12T20:21:06.380Z,16.77
2024-04-12T20:23:34.749Z,16.74
2024-04-12T20:26:14.278Z,16.68
2024-04-12T20:28:54.861Z,16.55
2024-04-12T20:31:23.406Z,16.56
2024-04-12T20:33:59.675Z,16.56
2024-04-12T20:36:57.381Z,16.54
2024-04-12T20:39:24.858Z,16.47
2024-04-12T20:41:56.676Z,16.47
2024-04-12T20:44:27.301Z,16.45
2024-04-12T20:46:55.688Z,16.44
2024-04-12T20:49:24.256Z,16.38
2024-04-12T20:51:55.204Z,16.36
2024-04-12T20:54:22.706Z,16.27
2024-04-12T20:56:50.781Z,16.27
2024-04-12T20:59:21.530Z,16.30
2024-04-12T21:01:52.620Z,16.27
2024-04-12T21:04:21.076Z,16.26
2024-04-12T21:06:49.503Z,16.24
2024-04-12T21:09:17.968Z,16.20
2024-04-12T21:11:48.624Z,16.19
2024-04-12T21:14:16.269Z,16.20
2024-04-12T21:16:44.970Z,16.17
2024-04-12T21:19:16.491Z,16.16
2024-04-12T21:21:43.955Z,16.09
2024-04-12T21:24:11.665Z,16.08
2024-04-12T21:26:39.294Z,16.02
2024-04-12T21:29:06.743Z,16.02
2024-04-12T21:31:34.216Z,16.00
2024-04-12T21:34:01.968Z,15.97
2024-04-12T21:36:29.549Z,16.00
2024-04-12T21:38:59.599Z,15.97
2024-04-12T21:41:27.570Z,15.94
2024-04-12T21:43:55.968Z,15.92
2024-04-12T21:46:24.093Z,15.88
2024-04-12T21:48:52.374Z,15.87
2024-04-12T21:51:21.533Z,15.80
2024-04-12T21:53:49.287Z,15.77
2024-04-12T21:56:17.954Z,15.75
2024-04-12T21:58:45.338Z,15.77
2024-04-12T22:01:14.456Z,15.72
2024-04-12T22:03:42.338Z,15.73
2024-04-12T22:06:13.268Z,15.71
2024-04-12T22:08:43.947Z,15.65
2024-04-12T22:11:11.765Z,15.65
2024-04-12T22:13:40.071Z,15.59
2024-04-12T22:16:13.626Z,15.59
2024-04-12T22:18:41.816Z,15.59
2024-04-12T22:21:17.797Z,15.56
2024-04-12T22:23:46.606Z,15.55
2024-04-12T22:26:15.606Z,15.55
2024-04-12T22:28:44.045Z,15.57
2024-04-12T22:31:22.647Z,15.53
2024-04-12T22:33:52.540Z,15.51
2024-04-12T22:36:20.564Z,15.51
2024-04-12T22:38:48.583Z,15.52
2024-04-12T22:41:16.085Z,15.51
2024-04-12T22:43:45.551Z,15.52
2024-04-12T22:46:15.610Z,15.50
2024-04-12T22:48:46.317Z,15.48
2024-04-12T22:51:27.497Z,15.50
2024-04-12T22:53:56.066Z,15.49
2024-04-12T22:56:26.433Z,15.45
2024-04-12T22:58:57.195Z,15.42
2024-04-12T23:01:27.513Z,15.42
2024-04-12T23:03:57.527Z,15.40
2024-04-12T23:06:25.386Z,15.40
2024-04-12T23:08:52.996Z,15.42
2024-04-12T23:11:20.887Z,15.39
2024-04-12T23:13:48.472Z,15.32
2024-04-12T23:16:15.993Z,15.35
2024-04-12T23:18:43.596Z,15.35
2024-04-12T23:21:11.497Z,15.31
2024-04-12T23:23:39.039Z,15.29
2024-04-12T23:26:07.609Z,15.26
2024-04-12T23:28:35.607Z,15.22
2024-04-12T23:31:03.109Z,15.21
2024-04-12T23:33:35.421Z,15.22
2024-04-12T23:36:04.691Z,15.22
2024-04-12T23:38:32.497Z,15.19
2024-04-12T23:40:59.894Z,15.18
2024-04-12T23:43:27.336Z,15.17
2024-04-12T23:45:54.834Z,15.13
2024-04-12T23:48:25.018Z,15.06
2024-04-12T23:50:52.642Z,15.05
2024-04-12T23:53:20.447Z,15.03
2024-04-12T23:55:47.972Z,15.00
2024-04-12T23:58:15.436Z,15.01
